Time;durP1;ratioP1;P1;durP2;ratioP2;P2;SDS_P1;SDS_P2;PMS_P1;PMS_P2;Temp;Humidity;BMP_temperature;BMP_pressure;BME280_temperature;BME280_humidity;BME280_pressure;Samples;Min_cycle;Max_cycle;Signal;HPM_P1;HPM_P2
2023/03/16 00:01:42;;;;;;;;;;;;;;;-144.99;92.51;52558.16;5019408;28;20009;-67
2023/03/16 00:04:09;;;;;;;;;;;;;;;-144.99;92.74;52554.09;5027524;28;19929;-66
2023/03/16 00:06:36;;;;;;;;;;;;;;;-144.99;92.94;52521.47;5027751;28;20315;-63
2023/03/16 00:09:04;;;;;;;;;;;;;;;-144.99;92.98;52578.53;5025517;28;20178;-65
2023/03/16 00:11:30;;;;;;;;;;;;;;;-144.99;93.42;52541.84;5027819;28;20161;-65
2023/03/16 00:13:57;;;;;;;;;;;;;;;-144.99;93.39;52541.84;5022555;28;19964;-64
2023/03/16 00:16:24;;;;;;;;;;;;;;;-144.99;92.80;52547.97;5018085;28;19944;-65
2023/03/16 00:18:50;;;;;;;;;;;;;;;-144.99;94.03;52539.81;5027090;28;19995;-66
2023/03/16 00:21:17;;;;;;;;;;;;;;;-144.99;95.39;52533.69;5027476;28;19964;-67
2023/03/16 00:23:43;;;;;;;;;;;;;;;-144.99;95.79;52566.31;5035532;28;20009;-69
2023/03/16 00:26:12;;;;;;;;;;;;;;;-144.99;95.96;52541.84;5027583;28;19929;-67
2023/03/16 00:28:38;;;;;;;;;;;;;;;-144.99;95.87;52537.78;5027504;28;19925;-67
2023/03/16 00:31:06;;;;;;;;;;;;;;;-144.99;96.61;52558.16;5027444;28;19975;-66
2023/03/16 00:33:33;;;;;;;;;;;;;;;-144.99;97.24;52594.84;5027590;28;20026;-66
2023/03/16 00:36:03;;;;;;;;;;;;;;;-144.99;97.03;52529.63;5023170;28;19929;-65
2023/03/16 00:38:31;;;;;;;;;;;;;;;-144.99;97.08;52521.47;5029970;28;19929;-65
2023/03/16 00:40:57;;;;;;;;;;;;;;;-144.99;97.54;52529.63;5024555;28;19964;-71
2023/03/16 00:43:26;;;;;;;;;;;;;;;-144.99;98.25;52611.16;5031764;28;20395;-72
2023/03/16 00:45:57;;;;;;;;;;;;;;;-144.99;99.06;52568.34;5030603;28;19929;-71
2023/03/16 00:48:24;;;;;;;;;;;;;;;-144.99;99.50;52533.69;5028945;28;19925;-72
2023/03/16 00:50:53;;;;;;;;;;;;;;;-144.99;100.00;52558.16;5031641;28;19973;-72
2023/03/16 00:53:21;;;;;;;;;;;;;;;-144.99;100.00;52578.53;5025881;28;20055;-70
2023/03/16 00:55:47;;;;;;;;;;;;;;;-144.99;100.00;52566.31;5028257;28;20043;-71
2023/03/16 00:58:14;;;;;;;;;;;;;;;-144.99;100.00;52562.25;5015726;28;19968;-67
2023/03/16 01:00:45;;;;;;;;;;;;;;;-144.99;100.00;52554.09;5029730;28;19929;-65
2023/03/16 01:03:11;;;;;;;;;;;;;;;-144.99;100.00;52566.31;5030138;28;19925;-65
2023/03/16 01:05:39;;;;;;;;;;;;;;;-144.99;100.00;52501.09;5030148;28;19979;-66
2023/03/16 01:08:06;;;;;;;;;;;;;;;-144.99;100.00;52552.03;5027934;28;19976;-66
2023/03/16 01:10:33;;;;;;;;;;;;;;;-144.99;100.00;52594.84;5021897;28;20011;-66
2023/03/16 01:13:02;;;;;;;;;;;;;;;-144.99;100.00;52554.09;5029347;28;19972;-66
2023/03/16 01:15:28;;;;;;;;;;;;;;;-144.99;99.92;52580.59;5029336;28;19968;-66
2023/03/16 01:17:57;;;;;;;;;;;;;;;-144.99;99.90;52545.94;5026204;28;19929;-67
2023/03/16 01:20:23;;;;;;;;;;;;;;;-144.99;99.88;52541.84;5030264;28;19933;-68
2023/03/16 01:22:50;;;;;;;;;;;;;;;-144.99;99.88;52550.00;5029977;28;20002;-68
2023/03/16 01:25:17;;;;;;;;;;;;;;;-144.99;99.69;52547.97;5029700;28;19979;-66
2023/03/16 01:27:43;;;;;;;;;;;;;;;-144.99;99.41;52570.38;5027955;28;19929;-67
2023/03/16 01:30:11;;;;;;;;;;;;;;;-144.99;99.76;52558.16;5029970;28;19956;-66
2023/03/16 01:32:38;;;;;;;;;;;;;;;-144.99;99.87;52562.25;5027595;28;20012;-67
2023/03/16 01:35:08;;;;;;;;;;;;;;;-144.99;99.74;52556.13;5023139;28;19956;-67
2023/03/16 01:37:34;;;;;;;;;;;;;;;-144.99;99.90;52525.56;5029271;28;19929;-67
2023/03/16 01:40:01;;;;;;;;;;;;;;;-144.99;99.50;52545.94;5029409;28;19979;-67
2023/03/16 01:42:27;;;;;;;;;;;;;;;-144.99;99.64;52554.09;5028477;28;19929;-68
2023/03/16 01:44:55;;;;;;;;;;;;;;;-144.99;99.00;52562.25;5029606;28;20357;-67
2023/03/16 01:47:22;;;;;;;;;;;;;;;-144.99;99.34;52558.16;5021407;28;19986;-67
2023/03/16 01:49:53;;;;;;;;;;;;;;;-144.99;99.15;52543.91;5022745;28;19925;-71
2023/03/16 01:52:24;;;;;;;;;;;;;;;-144.99;99.20;52574.47;5028207;28;20020;-71
2023/03/16 01:54:52;;;;;;;;;;;;;;;-144.99;99.23;52541.84;5019786;28;20309;-71
2023/03/16 01:57:20;;;;;;;;;;;;;;;-144.99;99.36;52574.47;5021932;28;20439;-72
2023/03/16 01:59:50;;;;;;;;;;;;;;;-144.99;100.00;52566.31;5029118;28;20032;-70
2023/03/16 02:02:19;;;;;;;;;;;;;;;-144.99;100.00;52529.63;5023701;28;19979;-70
2023/03/16 02:04:49;;;;;;;;;;;;;;;-144.99;100.00;52578.53;5019320;28;19961;-69
2023/03/16 02:07:17;;;;;;;;;;;;;;;-144.99;100.00;52574.47;5029531;28;19987;-69
2023/03/16 02:09:48;;;;;;;;;;;;;;;-144.99;100.00;52517.41;5022490;28;19925;-71
2023/03/16 02:12:17;;;;;;;;;;;;;;;-144.99;100.00;52545.94;5032621;28;19925;-70
2023/03/16 02:14:44;;;;;;;;;;;;;;;-144.99;100.00;52550.00;5028584;28;19968;-69
2023/03/16 02:17:11;;;;;;;;;;;;;;;-144.99;100.00;52564.28;5026922;28;19960;-70
2023/03/16 02:19:43;;;;;;;;;;;;;;;-144.99;100.00;52558.16;5025204;28;19947;-72
2023/03/16 02:22:10;;;;;;;;;;;;;;;-144.99;100.00;52541.84;5023131;28;19925;-72
2023/03/16 02:24:37;;;;;;;;;;;;;;;-144.99;100.00;52578.53;5015810;28;19960;-73
2023/03/16 02:27:07;;;;;;;;;;;;;;;-144.99;100.00;52564.28;5028995;28;19987;-75
2023/03/16 02:29:57;;;;;;;;;;;;;;;-144.99;100.00;52521.47;5028859;28;19964;-75
2023/03/16 02:32:25;;;;;;;;;;;;;;;-144.99;100.00;52568.34;5021472;28;20456;-77
2023/03/16 02:34:51;;;;;;;;;;;;;;;-144.99;100.00;52545.94;5019082;28;19925;-75
2023/03/16 02:37:18;;;;;;;;;;;;;;;-144.99;99.95;52527.59;5028905;28;19985;-75
2023/03/16 02:39:45;;;;;;;;;;;;;;;-144.99;99.81;52578.53;5020426;28;19925;-75
2023/03/16 02:42:15;;;;;;;;;;;;;;;-144.99;100.00;52574.47;5025582;28;21596;-74
2023/03/16 02:44:42;;;;;;;;;;;;;;;-144.99;99.53;52525.56;5028568;28;19961;-73
2023/03/16 02:47:14;;;;;;;;;;;;;;;-144.99;99.63;52550.00;5028255;28;19929;-73
2023/03/16 02:49:42;;;;;;;;;;;;;;;-144.99;99.33;52531.66;5026337;28;19929;-73
2023/03/16 02:52:09;;;;;;;;;;;;;;;-144.99;99.28;52578.53;5029895;28;19987;-74
2023/03/16 02:54:35;;;;;;;;;;;;;;;-144.99;99.37;52517.41;5028017;28;19929;-73
2023/03/16 02:57:02;;;;;;;;;;;;;;;-144.99;99.15;52537.78;5028172;28;19929;-73
2023/03/16 02:59:29;;;;;;;;;;;;;;;-144.99;99.14;52562.25;5024297;28;20396;-73
2023/03/16 03:01:55;;;;;;;;;;;;;;;-144.99;98.98;52539.81;5032469;28;20025;-68
2023/03/16 03:04:23;;;;;;;;;;;;;;;-144.99;98.92;52521.47;5032008;28;19929;-68
2023/03/16 03:06:50;;;;;;;;;;;;;;;-144.99;98.56;52566.31;5029653;28;20512;-68
2023/03/16 03:09:17;;;;;;;;;;;;;;;-144.99;98.57;52505.16;5027778;28;20022;-68
2023/03/16 03:11:45;;;;;;;;;;;;;;;-144.99;98.37;52562.25;5023410;28;19975;-68
2023/03/16 03:14:15;;;;;;;;;;;;;;;-144.99;98.39;52529.63;5017302;28;19926;-66
2023/03/16 03:16:45;;;;;;;;;;;;;;;-144.99;98.31;52515.34;5025971;28;20028;-67
2023/03/16 03:19:12;;;;;;;;;;;;;;;-144.99;98.41;52537.78;5028827;28;19947;-67
2023/03/16 03:21:40;;;;;;;;;;;;;;;-144.99;98.70;52529.63;5027577;28;19983;-66
2023/03/16 03:24:07;;;;;;;;;;;;;;;-144.99;98.67;52550.00;5028872;28;19978;-68
2023/03/16 03:26:33;;;;;;;;;;;;;;;-144.99;98.59;52521.47;5027670;28;20360;-66
2023/03/16 03:29:00;;;;;;;;;;;;;;;-144.99;98.63;52566.31;5019475;28;19925;-66
2023/03/16 03:31:26;;;;;;;;;;;;;;;-144.99;98.77;52554.09;5028449;28;20376;-66
2023/03/16 03:33:53;;;;;;;;;;;;;;;-144.99;98.78;52541.84;5014086;28;19987;-63
2023/03/16 03:36:21;;;;;;;;;;;;;;;-144.99;98.60;52556.13;5020598;28;20008;-63
2023/03/16 03:38:49;;;;;;;;;;;;;;;-144.99;98.53;52486.81;5026285;28;19956;-64
2023/03/16 03:41:15;;;;;;;;;;;;;;;-144.99;98.47;52568.34;5021078;28;19932;-63
2023/03/16 03:43:42;;;;;;;;;;;;;;;-144.99;98.28;52525.56;5027904;28;20409;-64
2023/03/16 03:46:08;;;;;;;;;;;;;;;-144.99;98.16;52550.00;5022064;28;19980;-64
2023/03/16 03:48:35;;;;;;;;;;;;;;;-144.99;98.11;52521.47;5018788;28;19937;-68
2023/03/16 03:51:02;;;;;;;;;;;;;;;-144.99;97.88;52541.84;5027941;28;19972;-67
2023/03/16 03:53:28;;;;;;;;;;;;;;;-144.99;97.39;52529.63;5027376;28;19929;-67
2023/03/16 03:55:56;;;;;;;;;;;;;;;-144.99;97.53;52521.47;5023999;28;20394;-67
2023/03/16 03:58:22;;;;;;;;;;;;;;;-144.99;97.22;52570.38;5024497;28;19929;-69
2023/03/16 04:00:49;;;;;;;;;;;;;;;-144.99;96.91;52537.78;5027581;28;19933;-67
2023/03/16 04:03:16;;;;;;;;;;;;;;;-144.99;96.61;52541.84;5027422;28;19932;-66
2023/03/16 04:05:42;;;;;;;;;;;;;;;-144.99;96.40;52541.84;5019774;28;19972;-66
2023/03/16 04:08:09;;;;;;;;;;;;;;;-144.99;96.08;52556.13;5019818;28;19983;-66
2023/03/16 04:10:35;;;;;;;;;;;;;;;-144.99;96.03;52550.00;5023616;28;19953;-66
2023/03/16 04:13:03;;;;;;;;;;;;;;;-144.99;95.74;52558.16;5029459;28;20012;-64
2023/03/16 04:15:31;;;;;;;;;;;;;;;-144.99;95.66;52550.00;5030483;28;19925;-73
2023/03/16 04:17:58;;;;;;;;;;;;;;;-144.99;95.76;52539.81;5029682;28;19983;-66
2023/03/16 04:20:25;;;;;;;;;;;;;;;-144.99;95.59;52572.44;5031058;28;19929;-67
2023/03/16 04:22:57;;;;;;;;;;;;;;;-144.99;95.54;52550.00;5022054;28;20009;-68
2023/03/16 04:25:24;;;;;;;;;;;;;;;-144.99;96.05;52550.00;5023414;28;20002;-67
2023/03/16 04:27:51;;;;;;;;;;;;;;;-144.99;95.83;52566.31;5030535;28;19933;-67
2023/03/16 04:30:19;;;;;;;;;;;;;;;-144.99;95.68;52554.09;5020837;28;19992;-67
2023/03/16 04:32:45;;;;;;;;;;;;;;;-144.99;95.44;52539.81;5029604;28;19925;-66
2023/03/16 04:35:12;;;;;;;;;;;;;;;-144.99;95.36;52547.97;5030122;28;20351;-66
2023/03/16 04:37:38;;;;;;;;;;;;;;;-144.99;96.05;52570.38;5028662;28;19925;-67
2023/03/16 04:40:13;;;;;;;;;;;;;;;-144.99;95.81;52541.84;5023945;28;19929;-66
2023/03/16 04:42:40;;;;;;;;;;;;;;;-144.99;95.33;52574.47;5027377;28;19925;-67
2023/03/16 04:45:08;;;;;;;;;;;;;;;-144.99;95.53;52550.00;5030207;28;19929;-66
2023/03/16 04:47:36;;;;;;;;;;;;;;;-144.99;95.49;52572.44;5030459;28;19931;-66
2023/03/16 04:50:03;;;;;;;;;;;;;;;-144.99;95.11;52590.78;5023808;28;20390;-66
2023/03/16 04:52:30;;;;;;;;;;;;;;;-144.99;95.08;52558.16;5022342;28;19933;-66
2023/03/16 04:54:56;;;;;;;;;;;;;;;-144.99;95.26;52525.56;5028431;28;19987;-62
2023/03/16 04:57:23;;;;;;;;;;;;;;;-144.99;95.48;52529.63;5019142;28;20368;-64
2023/03/16 04:59:49;;;;;;;;;;;;;;;-144.99;95.35;52554.09;5030384;28;20028;-67
2023/03/16 05:02:16;;;;;;;;;;;;;;;-144.99;95.23;52578.53;5030374;28;19925;-67
2023/03/16 05:04:44;;;;;;;;;;;;;;;-144.99;95.56;52537.78;5025719;28;19925;-67
2023/03/16 05:07:11;;;;;;;;;;;;;;;-144.99;95.56;52545.94;5022929;28;20418;-67
2023/03/16 05:09:37;;;;;;;;;;;;;;;-144.99;95.57;52537.78;5028932;28;19932;-67
2023/03/16 05:12:04;;;;;;;;;;;;;;;-144.99;95.33;52560.19;5024747;28;20327;-67
2023/03/16 05:14:30;;;;;;;;;;;;;;;-144.99;95.59;52554.09;5028013;28;20391;-67
2023/03/16 05:16:57;;;;;;;;;;;;;;;-144.99;94.59;52552.03;5021929;28;19961;-68
2023/03/16 05:19:23;;;;;;;;;;;;;;;-144.99;94.61;52562.25;5020565;28;20324;-67
2023/03/16 05:21:51;;;;;;;;;;;;;;;-144.99;94.81;52552.03;5025877;28;19979;-67
2023/03/16 05:24:18;;;;;;;;;;;;;;;-144.99;94.53;52541.84;5020442;28;19971;-66
2023/03/16 05:26:44;;;;;;;;;;;;;;;-144.99;93.66;52541.84;5035127;28;19924;-71
2023/03/16 05:29:11;;;;;;;;;;;;;;;-144.99;93.11;52537.78;5021976;28;19972;-71
2023/03/16 05:31:37;;;;;;;;;;;;;;;-144.99;93.05;52586.69;5022582;28;19930;-71
2023/03/16 05:34:04;;;;;;;;;;;;;;;-144.99;92.47;52558.16;5025732;28;20005;-70
2023/03/16 05:36:30;;;;;;;;;;;;;;;-144.99;92.40;52529.63;5034864;28;19972;-71
2023/03/16 05:38:58;;;;;;;;;;;;;;;-144.99;92.39;52594.84;5037426;28;20334;-71
2023/03/16 05:41:25;;;;;;;;;;;;;;;-144.99;92.16;52562.25;5034169;28;20043;-70
2023/03/16 05:43:51;;;;;;;;;;;;;;;-144.99;92.13;52537.78;5025911;28;19979;-70
2023/03/16 05:46:18;;;;;;;;;;;;;;;-144.99;91.95;52523.50;5029454;28;19926;-70
2023/03/16 05:48:44;;;;;;;;;;;;;;;-144.99;91.85;52537.78;5031709;28;20018;-72
2023/03/16 05:51:13;;;;;;;;;;;;;;;-144.99;91.73;52547.97;5025875;28;20453;-72
2023/03/16 05:53:39;;;;;;;;;;;;;;;-144.99;91.65;52558.16;5031380;28;19936;-72
2023/03/16 05:56:07;;;;;;;;;;;;;;;-144.99;91.34;52541.84;5034452;28;19968;-72
2023/03/16 05:58:34;;;;;;;;;;;;;;;-144.99;91.38;52554.09;5026286;28;19968;-72
2023/03/16 06:01:01;;;;;;;;;;;;;;;-144.99;90.98;52513.31;5029447;28;20285;-72
2023/03/16 06:03:28;;;;;;;;;;;;;;;-144.99;90.65;52570.38;5035947;28;19947;-72
2023/03/16 06:05:54;;;;;;;;;;;;;;;-144.99;90.68;52541.84;5030653;28;19987;-72
2023/03/16 06:08:21;;;;;;;;;;;;;;;-144.99;90.39;52547.97;5039057;28;19929;-72
2023/03/16 06:10:47;;;;;;;;;;;;;;;-144.99;90.35;52517.41;5017015;28;19972;-72
2023/03/16 06:13:15;;;;;;;;;;;;;;;-144.99;90.22;52541.84;5026440;28;19988;-72
2023/03/16 06:15:43;;;;;;;;;;;;;;;-144.99;90.10;52554.09;5029377;28;19971;-72
2023/03/16 06:18:09;;;;;;;;;;;;;;;-144.99;90.03;52521.47;5028837;28;19925;-72
2023/03/16 06:20:36;;;;;;;;;;;;;;;-144.99;89.87;52513.31;5026025;28;19929;-72
2023/03/16 06:23:04;;;;;;;;;;;;;;;-144.99;89.73;52517.41;5020725;28;19991;-72
2023/03/16 06:25:31;;;;;;;;;;;;;;;-144.99;89.63;52533.69;5024321;28;20468;-72
2023/03/16 06:27:57;;;;;;;;;;;;;;;-144.99;89.74;52529.63;5018351;28;19929;-72
2023/03/16 06:30:25;;;;;;;;;;;;;;;-144.99;89.40;52550.00;5021065;28;19925;-72
2023/03/16 06:32:52;;;;;;;;;;;;;;;-144.99;89.51;52545.94;5028225;28;19929;-72
2023/03/16 06:35:18;;;;;;;;;;;;;;;-144.99;89.61;52490.91;5028234;28;19971;-72
2023/03/16 06:37:45;;;;;;;;;;;;;;;-144.99;89.05;52537.78;5028548;28;20016;-72
2023/03/16 06:40:12;;;;;;;;;;;;;;;-144.99;88.83;52513.31;5029028;28;20002;-72
2023/03/16 06:42:38;;;;;;;;;;;;;;;-144.99;88.81;52537.78;5018104;28;20251;-71
2023/03/16 06:45:05;;;;;;;;;;;;;;;-144.99;88.81;52517.41;5022122;28;19929;-73
2023/03/16 06:47:33;;;;;;;;;;;;;;;-144.99;88.53;52537.78;5025950;28;19929;-73
2023/03/16 06:50:00;;;;;;;;;;;;;;;-144.99;88.36;52562.25;5016423;28;19979;-73
2023/03/16 06:52:26;;;;;;;;;;;;;;;-144.99;88.83;52550.00;5028651;28;20393;-72
2023/03/16 06:54:53;;;;;;;;;;;;;;;-144.99;88.90;52486.81;5023513;28;19929;-73
2023/03/16 06:57:20;;;;;;;;;;;;;;;-144.99;88.47;52525.56;5028891;28;20020;-73
2023/03/16 06:59:46;;;;;;;;;;;;;;;-144.99;88.40;52497.00;5020624;28;19929;-72
2023/03/16 07:02:14;;;;;;;;;;;;;;;-144.99;88.33;52541.84;5028749;28;19929;-71
2023/03/16 07:04:41;;;;;;;;;;;;;;;-144.99;87.60;52513.31;5028671;28;19952;-73
2023/03/16 07:07:09;;;;;;;;;;;;;;;-144.99;87.18;52527.59;5029896;28;20006;-71
2023/03/16 07:09:35;;;;;;;;;;;;;;;-144.99;86.69;52543.91;5027848;28;20354;-73
2023/03/16 07:12:02;;;;;;;;;;;;;;;-144.99;85.67;52499.06;5021938;28;20039;-71
2023/03/16 07:14:30;;;;;;;;;;;;;;;-144.99;85.06;52545.94;5028200;28;19939;-71
2023/03/16 07:16:56;;;;;;;;;;;;;;;-144.99;85.01;52497.00;5028578;28;19925;-71
2023/03/16 07:19:23;;;;;;;;;;;;;;;-144.99;84.21;52541.84;5027819;28;20346;-73
2023/03/16 07:21:51;;;;;;;;;;;;;;;-144.99;83.99;52505.16;5020281;28;19936;-71
2023/03/16 07:24:17;;;;;;;;;;;;;;;-144.99;84.12;52525.56;5027953;28;20020;-72
2023/03/16 07:26:45;;;;;;;;;;;;;;;-144.99;83.97;52513.31;5018171;28;19925;-73
2023/03/16 07:29:12;;;;;;;;;;;;;;;-144.99;84.21;52492.94;5024751;28;20394;-73
2023/03/16 07:31:39;;;;;;;;;;;;;;;-144.99;84.05;52562.25;5027419;28;19929;-72
2023/03/16 07:34:06;;;;;;;;;;;;;;;-144.99;84.07;52550.00;5017198;28;19925;-73
2023/03/16 07:36:32;;;;;;;;;;;;;;;-144.99;83.61;52531.66;5028389;28;20394;-72
2023/03/16 07:39:00;;;;;;;;;;;;;;;-144.99;83.37;52505.16;5027827;28;19971;-72
2023/03/16 07:41:27;;;;;;;;;;;;;;;-144.99;83.06;52537.78;5027945;28;20345;-72
2023/03/16 07:43:53;;;;;;;;;;;;;;;-144.99;82.44;52543.91;5025751;28;19925;-72
2023/03/16 07:46:20;;;;;;;;;;;;;;;-144.99;81.89;52505.16;5034759;28;19929;-71
2023/03/16 07:48:46;;;;;;;;;;;;;;;-144.99;81.18;52507.19;5033966;28;19933;-72
2023/03/16 07:51:13;;;;;;;;;;;;;;;-144.99;80.97;52521.47;5024064;28;20456;-73
2023/03/16 07:53:40;;;;;;;;;;;;;;;-144.99;79.62;52505.16;5027828;28;20305;-73
2023/03/16 07:56:08;;;;;;;;;;;;;;;-144.99;78.80;52533.69;5035005;28;20464;-75
2023/03/16 07:58:35;;;;;;;;;;;;;;;-144.99;78.58;52486.81;5029042;28;19925;-74
2023/03/16 08:01:01;;;;;;;;;;;;;;;-144.99;77.76;52497.00;5034965;28;19991;-74
2023/03/16 08:03:29;;;;;;;;;;;;;;;-144.99;76.68;52468.47;5030442;28;19929;-73
2023/03/16 08:05:55;;;;;;;;;;;;;;;-144.99;76.73;52492.94;5030148;28;19973;-74
2023/03/16 08:08:22;;;;;;;;;;;;;;;-144.99;76.89;52478.66;5032539;28;19983;-74
2023/03/16 08:10:51;;;;;;;;;;;;;;;-144.99;76.57;52484.78;5023710;28;19956;-73
2023/03/16 08:13:19;;;;;;;;;;;;;;;-144.99;76.19;52488.84;5026036;28;19925;-74
2023/03/16 08:15:46;;;;;;;;;;;;;;;-144.99;75.53;52480.72;5033418;28;20050;-74
2023/03/16 08:18:16;;;;;;;;;;;;;;;-144.99;75.27;52484.78;5040018;28;19925;-75
2023/03/16 08:20:43;;;;;;;;;;;;;;;-144.99;74.86;52488.84;5040515;28;19929;-74
2023/03/16 08:23:10;;;;;;;;;;;;;;;-144.99;74.60;52525.56;5044394;28;20371;-74
2023/03/16 08:25:37;;;;;;;;;;;;;;;-144.99;73.80;52497.00;5041245;28;19929;-74
2023/03/16 08:28:04;;;;;;;;;;;;;;;-144.99;73.73;52513.31;5048182;28;19929;-74
2023/03/16 08:30:32;;;;;;;;;;;;;;;-144.99;72.66;52484.78;5047573;28;19952;-73
2023/03/16 08:33:00;;;;;;;;;;;;;;;-144.99;72.78;52468.47;5061392;22;19932;-70
2023/03/16 08:35:27;;;;;;;;;;;;;;;-144.99;72.40;52505.16;5043045;28;20016;-70
2023/03/16 08:37:55;;;;;;;;;;;;;;;-144.99;71.26;52482.75;5036454;28;19944;-71
2023/03/16 08:40:23;;;;;;;;;;;;;;;-144.99;71.00;52476.63;5042825;28;19925;-71
2023/03/16 08:42:50;;;;;;;;;;;;;;;-144.99;71.19;52456.25;5041021;28;19926;-71
2023/03/16 08:45:18;;;;;;;;;;;;;;;-144.99;70.91;52470.50;5044160;28;19925;-71
2023/03/16 08:47:46;;;;;;;;;;;;;;;-144.99;70.93;52476.63;5036324;28;19984;-71
2023/03/16 08:50:14;;;;;;;;;;;;;;;-144.99;70.22;52476.63;5037178;28;20010;-71
2023/03/16 08:52:41;;;;;;;;;;;;;;;-144.99;70.65;52439.94;5036147;28;20340;-70
2023/03/16 08:55:09;;;;;;;;;;;;;;;-144.99;70.48;52478.66;5033174;28;20398;-69
2023/03/16 08:57:37;;;;;;;;;;;;;;;-144.99;69.76;52464.41;5033630;28;20293;-70
2023/03/16 09:00:11;;;;;;;;;;;;;;;-144.99;69.66;52435.88;5036146;28;19929;-71
2023/03/16 09:02:39;;;;;;;;;;;;;;;-144.99;70.25;52476.63;5032940;28;19936;-70
2023/03/16 09:05:08;;;;;;;;;;;;;;;-144.99;69.94;52415.47;5032421;28;20341;-70
2023/03/16 09:07:35;;;;;;;;;;;;;;;-144.99;70.71;52466.44;5035318;28;20326;-70
2023/03/16 09:10:03;;;;;;;;;;;;;;;-144.99;70.18;52486.81;5033491;28;20384;-71
2023/03/16 09:12:31;;;;;;;;;;;;;;;-144.99;69.55;52419.56;5032947;28;19932;-71
2023/03/16 09:14:58;;;;;;;;;;;;;;;-144.99;69.06;52505.16;5039707;28;19991;-71
2023/03/16 09:17:24;;;;;;;;;;;;;;;-144.99;69.04;52439.94;5032531;28;20079;-72
2023/03/16 09:19:51;;;;;;;;;;;;;;;-144.99;68.59;52460.31;5034057;28;19972;-70
2023/03/16 09:22:19;;;;;;;;;;;;;;;-144.99;68.15;52468.47;5032098;28;20366;-72
2023/03/16 09:24:46;;;;;;;;;;;;;;;-144.99;68.07;52423.63;5031874;28;20175;-71
2023/03/16 09:27:12;;;;;;;;;;;;;;;-144.99;68.78;52444.03;5025703;28;19989;-72
2023/03/16 09:29:39;;;;;;;;;;;;;;;-144.99;68.69;52480.72;5032493;28;20270;-72
2023/03/16 09:32:06;;;;;;;;;;;;;;;-144.99;68.48;52435.88;5040253;28;19975;-71
2023/03/16 09:34:33;;;;;;;;;;;;;;;-144.99;68.16;52444.03;5037314;28;19929;-72
2023/03/16 09:37:00;;;;;;;;;;;;;;;-144.99;67.48;52458.28;5039837;28;20131;-72
2023/03/16 09:39:28;;;;;;;;;;;;;;;-144.99;67.78;52435.88;5052141;28;19936;-72
2023/03/16 09:41:59;;;;;;;;;;;;;;;-144.99;67.94;52464.41;5043714;28;19940;-72
2023/03/16 09:44:32;;;;;;;;;;;;;;;-144.99;66.62;52464.41;5045369;28;19980;-71
2023/03/16 09:47:00;;;;;;;;;;;;;;;-144.99;66.18;52417.53;5031654;28;19937;-71
2023/03/16 09:49:28;;;;;;;;;;;;;;;-144.99;66.77;52480.72;5032075;28;19925;-71
2023/03/16 09:51:58;;;;;;;;;;;;;;;-144.99;66.33;52423.63;5032078;28;19955;-71
2023/03/16 09:54:29;;;;;;;;;;;;;;;-144.99;66.27;52456.25;5032186;28;20135;-71
2023/03/16 09:56:58;;;;;;;;;;;;;;;-144.99;66.47;52480.72;5036607;28;19928;-72
2023/03/16 10:05:24;;;;;;;;;;;;;;;-144.99;65.67;52464.41;5053158;28;19940;-72
2023/03/16 10:07:58;;;;;;;;;;;;;;;-144.99;65.47;52454.22;5041869;28;19925;-71
2023/03/16 10:10:39;;;;;;;;;;;;;;;-144.99;65.65;52466.44;5034879;28;20369;-72
2023/03/16 10:13:14;;;;;;;;;;;;;;;-144.99;65.59;52425.66;5034834;28;19925;-71
2023/03/16 10:15:41;;;;;;;;;;;;;;;-144.99;65.14;52437.91;5032632;28;20345;-71
2023/03/16 10:18:14;;;;;;;;;;;;;;;-144.99;65.56;52435.88;5035870;28;19976;-71
2023/03/16 10:20:41;;;;;;;;;;;;;;;-144.99;65.16;52439.94;5032086;28;20181;-71
2023/03/16 10:23:13;;;;;;;;;;;;;;;-144.99;64.19;52439.94;5036354;28;20295;-72
2023/03/16 10:25:43;;;;;;;;;;;;;;;-144.99;64.21;52431.78;5033898;28;19925;-72
2023/03/16 10:28:13;;;;;;;;;;;;;;;-144.99;63.69;52395.09;5032257;28;19979;-72
2023/03/16 10:30:41;;;;;;;;;;;;;;;-144.99;63.16;52431.78;5032483;28;19948;-72
2023/03/16 10:33:16;;;;;;;;;;;;;;;-144.99;63.39;52435.88;5031753;28;20745;-72
2023/03/16 10:35:46;;;;;;;;;;;;;;;-144.99;63.80;52427.72;5038469;28;19929;-71
2023/03/16 10:38:26;;;;;;;;;;;;;;;-144.99;64.69;52435.88;5029602;28;19929;-72
2023/03/16 10:40:53;;;;;;;;;;;;;;;-144.99;64.30;52441.97;5031487;28;20364;-72
2023/03/16 10:43:21;;;;;;;;;;;;;;;-144.99;64.16;52419.56;5031314;28;19932;-72
2023/03/16 10:45:48;;;;;;;;;;;;;;;-144.99;64.00;52460.31;5030260;28;19925;-71
2023/03/16 10:48:17;;;;;;;;;;;;;;;-144.99;64.00;52415.47;5036852;28;19963;-72
2023/03/16 10:50:48;;;;;;;;;;;;;;;-144.99;63.16;52413.44;5030594;28;19925;-71
2023/03/16 10:53:16;;;;;;;;;;;;;;;-144.99;63.15;52399.19;5030563;28;19929;-71
2023/03/16 10:55:44;;;;;;;;;;;;;;;-144.99;62.49;52350.25;5031772;28;19948;-70
2023/03/16 10:58:12;;;;;;;;;;;;;;;-144.99;62.36;52366.56;5032580;28;19960;-71
2023/03/16 11:00:42;;;;;;;;;;;;;;;-144.99;61.81;52403.25;5032901;28;20033;-71
2023/03/16 11:03:13;;;;;;;;;;;;;;;-144.99;61.61;52356.38;5032436;28;20050;-72
2023/03/16 11:05:40;;;;;;;;;;;;;;;-144.99;61.29;52358.41;5038665;28;20442;-72
2023/03/16 11:08:11;;;;;;;;;;;;;;;-144.99;61.50;52358.41;5033633;28;19935;-73
2023/03/16 11:10:39;;;;;;;;;;;;;;;-144.99;60.67;52372.69;5033058;28;20028;-70
2023/03/16 11:13:10;;;;;;;;;;;;;;;-144.99;61.31;52362.50;5039903;28;19947;-71
2023/03/16 11:15:38;;;;;;;;;;;;;;;-144.99;61.59;52382.88;5033253;28;19925;-71
2023/03/16 11:18:09;;;;;;;;;;;;;;;-144.99;60.85;52317.66;5037355;28;19929;-72
2023/03/16 11:20:37;;;;;;;;;;;;;;;-144.99;59.56;52329.88;5032908;28;19960;-72
2023/03/16 11:23:07;;;;;;;;;;;;;;;-144.99;58.72;52311.53;5030274;28;19925;-72
2023/03/16 11:25:37;;;;;;;;;;;;;;;-144.99;59.23;52260.56;5030342;28;19961;-71
2023/03/16 11:28:10;;;;;;;;;;;;;;;-144.99;59.21;52309.50;5047505;28;20041;-71
2023/03/16 11:30:40;;;;;;;;;;;;;;;-144.99;58.34;52338.03;5046833;28;19948;-72
2023/03/16 11:33:09;;;;;;;;;;;;;;;-144.99;58.95;52346.19;5046281;28;19945;-71
2023/03/16 11:35:43;;;;;;;;;;;;;;;-144.99;59.63;52350.25;5039513;28;19961;-72
2023/03/16 11:38:13;;;;;;;;;;;;;;;-144.99;60.32;52393.06;5038838;28;20005;-71
2023/03/16 11:40:43;;;;;;;;;;;;;;;-144.99;59.54;52399.19;5048213;28;19947;-71
2023/03/16 11:43:18;;;;;;;;;;;;;;;-144.99;59.63;52366.56;5039035;28;19961;-70
2023/03/16 11:45:52;;;;;;;;;;;;;;;-144.99;59.97;52382.88;5037423;28;19955;-72
2023/03/16 11:48:29;;;;;;;;;;;;;;;-144.99;59.74;52333.94;5041510;28;19978;-72
2023/03/16 11:51:02;;;;;;;;;;;;;;;-144.99;59.73;52411.41;5032256;28;19986;-72
2023/03/16 11:53:43;;;;;;;;;;;;;;;-144.99;59.49;52378.78;5031037;28;19937;-72
2023/03/16 11:56:14;;;;;;;;;;;;;;;-144.99;59.25;52350.25;5039945;28;19963;-71
2023/03/16 11:58:58;;;;;;;;;;;;;;;-144.99;59.13;52374.72;5045024;28;19939;-72
2023/03/16 12:01:27;;;;;;;;;;;;;;;-144.99;59.13;52362.50;5037147;28;19925;-72
2023/03/16 12:04:02;;;;;;;;;;;;;;;-144.99;59.21;52374.72;5031198;28;20053;-71
2023/03/16 12:06:37;;;;;;;;;;;;;;;-144.99;59.38;52325.81;5044265;28;19928;-71
2023/03/16 12:09:14;;;;;;;;;;;;;;;-144.99;59.53;52374.72;5034221;28;19959;-71
2023/03/16 12:11:46;;;;;;;;;;;;;;;-144.99;59.82;52297.25;5043483;28;20004;-71
2023/03/16 12:14:17;;;;;;;;;;;;;;;-144.99;58.23;52311.53;5040047;28;20035;-72
2023/03/16 12:16:46;;;;;;;;;;;;;;;-144.99;58.38;52374.72;5040469;28;19943;-71
2023/03/16 12:19:16;;;;;;;;;;;;;;;-144.99;59.21;52342.09;5039087;28;19959;-71
2023/03/16 12:21:45;;;;;;;;;;;;;;;-144.99;58.15;52329.88;5039446;28;19948;-71
2023/03/16 12:24:14;;;;;;;;;;;;;;;-144.99;57.64;52285.03;5050438;28;19981;-71
2023/03/16 12:26:42;;;;;;;;;;;;;;;-144.99;57.26;52293.19;5037752;28;20362;-72
2023/03/16 12:29:16;;;;;;;;;;;;;;;-144.99;57.96;52252.44;5033653;28;19947;-72
2023/03/16 12:31:47;;;;;;;;;;;;;;;-144.99;57.14;52299.31;5046000;28;19924;-73
2023/03/16 12:34:19;;;;;;;;;;;;;;;-144.99;57.58;52280.97;5041450;28;20015;-72
2023/03/16 12:36:53;;;;;;;;;;;;;;;-144.99;57.56;52268.72;5045472;28;19925;-72